sensor_id;sensor_type;location;lat;lon;timestamp;temperature;humidity
28374;DHT22;15616;40.148;-102.718;2023-04-03T00:02:07;19.80;52.50
28374;DHT22;15616;40.148;-102.718;2023-04-03T00:04:33;19.80;52.50
28374;DHT22;15616;40.148;-102.718;2023-04-03T00:06:58;19.80;52.50
28374;DHT22;15616;40.148;-102.718;2023-04-03T00:09:24;19.80;52.50
28374;DHT22;15616;40.148;-102.718;2023-04-03T00:11:50;19.80;52.50
28374;DHT22;15616;40.148;-102.718;2023-04-03T00:14:16;19.80;52.50
28374;DHT22;15616;40.148;-102.718;2023-04-03T00:16:41;19.90;52.50
28374;DHT22;15616;40.148;-102.718;2023-04-03T00:19:07;19.90;52.50
28374;DHT22;15616;40.148;-102.718;2023-04-03T00:21:33;19.90;52.50
28374;DHT22;15616;40.148;-102.718;2023-04-03T00:23:58;19.90;52.50
28374;DHT22;15616;40.148;-102.718;2023-04-03T00:26:24;19.90;52.40
28374;DHT22;15616;40.148;-102.718;2023-04-03T00:28:50;19.90;52.40
28374;DHT22;15616;40.148;-102.718;2023-04-03T00:31:16;19.90;53.00
28374;DHT22;15616;40.148;-102.718;2023-04-03T00:33:42;19.90;52.30
28374;DHT22;15616;40.148;-102.718;2023-04-03T00:36:08;19.90;52.30
28374;DHT22;15616;40.148;-102.718;2023-04-03T00:38:34;19.90;52.40
28374;DHT22;15616;40.148;-102.718;2023-04-03T00:41:00;19.80;53.00
28374;DHT22;15616;40.148;-102.718;2023-04-03T00:43:26;19.90;52.40
28374;DHT22;15616;40.148;-102.718;2023-04-03T00:45:53;19.80;52.40
28374;DHT22;15616;40.148;-102.718;2023-04-03T00:48:23;19.90;52.40
28374;DHT22;15616;40.148;-102.718;2023-04-03T00:50:50;19.80;52.40
28374;DHT22;15616;40.148;-102.718;2023-04-03T00:53:17;19.80;52.50
28374;DHT22;15616;40.148;-102.718;2023-04-03T00:55:45;19.80;52.50
28374;DHT22;15616;40.148;-102.718;2023-04-03T00:58:12;19.80;52.40
28374;DHT22;15616;40.148;-102.718;2023-04-03T01:00:38;19.80;52.50
28374;DHT22;15616;40.148;-102.718;2023-04-03T01:03:05;19.80;52.40
28374;DHT22;15616;40.148;-102.718;2023-04-03T01:05:31;19.80;52.40
28374;DHT22;15616;40.148;-102.718;2023-04-03T01:07:57;19.80;52.40
28374;DHT22;15616;40.148;-102.718;2023-04-03T01:10:23;19.80;52.40
28374;DHT22;15616;40.148;-102.718;2023-04-03T01:12:51;19.90;52.50
28374;DHT22;15616;40.148;-102.718;2023-04-03T01:15:21;19.80;52.40
28374;DHT22;15616;40.148;-102.718;2023-04-03T01:17:51;19.80;52.40
28374;DHT22;15616;40.148;-102.718;2023-04-03T01:22:59;19.90;52.40
28374;DHT22;15616;40.148;-102.718;2023-04-03T01:25:27;19.90;52.40
28374;DHT22;15616;40.148;-102.718;2023-04-03T01:27:53;19.90;52.40
28374;DHT22;15616;40.148;-102.718;2023-04-03T01:30:20;19.90;52.30
28374;DHT22;15616;40.148;-102.718;2023-04-03T01:32:46;19.80;52.30
28374;DHT22;15616;40.148;-102.718;2023-04-03T01:35:12;19.80;52.30
28374;DHT22;15616;40.148;-102.718;2023-04-03T01:37:38;19.80;52.30
28374;DHT22;15616;40.148;-102.718;2023-04-03T01:40:03;19.80;52.40
28374;DHT22;15616;40.148;-102.718;2023-04-03T01:42:29;19.80;52.40
28374;DHT22;15616;40.148;-102.718;2023-04-03T01:44:55;19.80;52.40
28374;DHT22;15616;40.148;-102.718;2023-04-03T01:47:21;19.80;52.40
28374;DHT22;15616;40.148;-102.718;2023-04-03T01:49:47;19.80;52.40
28374;DHT22;15616;40.148;-102.718;2023-04-03T01:52:12;19.80;52.40
28374;DHT22;15616;40.148;-102.718;2023-04-03T01:54:38;19.80;52.30
28374;DHT22;15616;40.148;-102.718;2023-04-03T01:57:04;19.80;52.40
28374;DHT22;15616;40.148;-102.718;2023-04-03T01:59:30;19.80;52.30
28374;DHT22;15616;40.148;-102.718;2023-04-03T02:01:55;19.80;52.30
28374;DHT22;15616;40.148;-102.718;2023-04-03T02:04:21;19.80;52.30
28374;DHT22;15616;40.148;-102.718;2023-04-03T02:06:47;19.80;52.30
28374;DHT22;15616;40.148;-102.718;2023-04-03T02:09:12;19.80;52.30
28374;DHT22;15616;40.148;-102.718;2023-04-03T02:11:38;19.80;52.30
28374;DHT22;15616;40.148;-102.718;2023-04-03T02:14:04;19.80;52.30
28374;DHT22;15616;40.148;-102.718;2023-04-03T02:16:30;19.80;52.30
28374;DHT22;15616;40.148;-102.718;2023-04-03T02:18:56;19.80;52.90
28374;DHT22;15616;40.148;-102.718;2023-04-03T02:21:22;19.80;52.20
28374;DHT22;15616;40.148;-102.718;2023-04-03T02:23:47;19.80;52.30
28374;DHT22;15616;40.148;-102.718;2023-04-03T02:26:14;19.80;52.30
28374;DHT22;15616;40.148;-102.718;2023-04-03T02:28:40;19.80;52.30
28374;DHT22;15616;40.148;-102.718;2023-04-03T02:31:06;19.80;52.30
28374;DHT22;15616;40.148;-102.718;2023-04-03T02:33:32;19.80;52.30
28374;DHT22;15616;40.148;-102.718;2023-04-03T02:35:58;19.80;52.30
28374;DHT22;15616;40.148;-102.718;2023-04-03T02:38:24;19.80;53.00
28374;DHT22;15616;40.148;-102.718;2023-04-03T02:40:50;19.80;52.30
28374;DHT22;15616;40.148;-102.718;2023-04-03T02:43:16;19.80;52.30
28374;DHT22;15616;40.148;-102.718;2023-04-03T02:45:42;19.80;52.30
28374;DHT22;15616;40.148;-102.718;2023-04-03T02:48:07;19.80;52.30
28374;DHT22;15616;40.148;-102.718;2023-04-03T02:50:33;19.80;52.30
28374;DHT22;15616;40.148;-102.718;2023-04-03T02:52:59;19.80;52.30
28374;DHT22;15616;40.148;-102.718;2023-04-03T02:55:25;19.80;52.30
28374;DHT22;15616;40.148;-102.718;2023-04-03T02:57:50;19.80;52.20
28374;DHT22;15616;40.148;-102.718;2023-04-03T03:00:16;19.80;52.20
28374;DHT22;15616;40.148;-102.718;2023-04-03T03:02:42;19.80;52.20
28374;DHT22;15616;40.148;-102.718;2023-04-03T03:05:08;19.80;52.20
28374;DHT22;15616;40.148;-102.718;2023-04-03T03:07:33;19.80;52.30
28374;DHT22;15616;40.148;-102.718;2023-04-03T03:09:59;19.80;52.20
28374;DHT22;15616;40.148;-102.718;2023-04-03T03:12:25;19.80;52.30
28374;DHT22;15616;40.148;-102.718;2023-04-03T03:14:51;19.80;52.30
28374;DHT22;15616;40.148;-102.718;2023-04-03T03:17:17;19.80;52.30
28374;DHT22;15616;40.148;-102.718;2023-04-03T03:19:43;19.80;52.30
28374;DHT22;15616;40.148;-102.718;2023-04-03T03:22:09;19.80;52.30
28374;DHT22;15616;40.148;-102.718;2023-04-03T03:24:34;19.80;52.30
28374;DHT22;15616;40.148;-102.718;2023-04-03T03:27:00;19.80;52.30
28374;DHT22;15616;40.148;-102.718;2023-04-03T03:29:26;19.80;52.30
28374;DHT22;15616;40.148;-102.718;2023-04-03T03:31:52;19.80;52.20
28374;DHT22;15616;40.148;-102.718;2023-04-03T03:34:17;19.80;52.20
28374;DHT22;15616;40.148;-102.718;2023-04-03T03:36:43;19.80;52.30
28374;DHT22;15616;40.148;-102.718;2023-04-03T03:39:09;19.80;52.20
28374;DHT22;15616;40.148;-102.718;2023-04-03T03:41:35;19.80;52.20
28374;DHT22;15616;40.148;-102.718;2023-04-03T03:44:01;19.80;52.30
28374;DHT22;15616;40.148;-102.718;2023-04-03T03:46:27;19.80;52.30
28374;DHT22;15616;40.148;-102.718;2023-04-03T03:48:52;19.80;52.30
28374;DHT22;15616;40.148;-102.718;2023-04-03T03:51:18;19.80;52.20
28374;DHT22;15616;40.148;-102.718;2023-04-03T03:53:44;19.80;52.20
28374;DHT22;15616;40.148;-102.718;2023-04-03T03:56:10;19.80;52.20
28374;DHT22;15616;40.148;-102.718;2023-04-03T03:58:35;19.80;52.20
28374;DHT22;15616;40.148;-102.718;2023-04-03T04:01:02;19.80;52.20
28374;DHT22;15616;40.148;-102.718;2023-04-03T04:03:28;19.80;52.20
28374;DHT22;15616;40.148;-102.718;2023-04-03T04:05:53;19.80;52.20
28374;DHT22;15616;40.148;-102.718;2023-04-03T04:08:20;19.80;52.20
28374;DHT22;15616;40.148;-102.718;2023-04-03T04:10:46;19.80;52.20
28374;DHT22;15616;40.148;-102.718;2023-04-03T04:13:11;19.80;52.20
28374;DHT22;15616;40.148;-102.718;2023-04-03T04:15:37;19.70;52.20
28374;DHT22;15616;40.148;-102.718;2023-04-03T04:18:03;19.70;52.20
28374;DHT22;15616;40.148;-102.718;2023-04-03T04:20:28;19.70;52.20
28374;DHT22;15616;40.148;-102.718;2023-04-03T04:22:54;19.70;52.20
28374;DHT22;15616;40.148;-102.718;2023-04-03T04:25:20;19.70;52.20
28374;DHT22;15616;40.148;-102.718;2023-04-03T04:27:46;19.70;52.10
28374;DHT22;15616;40.148;-102.718;2023-04-03T04:30:12;19.70;52.10
28374;DHT22;15616;40.148;-102.718;2023-04-03T04:32:38;19.70;52.10
28374;DHT22;15616;40.148;-102.718;2023-04-03T04:35:03;19.70;52.70
28374;DHT22;15616;40.148;-102.718;2023-04-03T04:37:30;19.70;52.10
28374;DHT22;15616;40.148;-102.718;2023-04-03T04:39:56;19.70;52.10
28374;DHT22;15616;40.148;-102.718;2023-04-03T04:42:21;19.70;52.10
28374;DHT22;15616;40.148;-102.718;2023-04-03T04:44:47;19.80;52.00
28374;DHT22;15616;40.148;-102.718;2023-04-03T04:47:13;19.80;52.00
28374;DHT22;15616;40.148;-102.718;2023-04-03T04:49:38;19.80;51.90
28374;DHT22;15616;40.148;-102.718;2023-04-03T04:52:04;19.80;51.90
28374;DHT22;15616;40.148;-102.718;2023-04-03T04:54:30;19.80;51.90
28374;DHT22;15616;40.148;-102.718;2023-04-03T04:56:56;19.80;51.80
28374;DHT22;15616;40.148;-102.718;2023-04-03T04:59:22;19.80;52.50
28374;DHT22;15616;40.148;-102.718;2023-04-03T05:01:47;19.90;51.80
28374;DHT22;15616;40.148;-102.718;2023-04-03T05:04:13;19.90;51.80
28374;DHT22;15616;40.148;-102.718;2023-04-03T05:06:39;19.90;51.70
28374;DHT22;15616;40.148;-102.718;2023-04-03T05:09:04;19.90;51.80
28374;DHT22;15616;40.148;-102.718;2023-04-03T05:11:30;19.90;51.80
28374;DHT22;15616;40.148;-102.718;2023-04-03T05:13:56;19.90;51.80
28374;DHT22;15616;40.148;-102.718;2023-04-03T05:16:22;19.90;51.70
28374;DHT22;15616;40.148;-102.718;2023-04-03T05:18:48;19.90;51.70
28374;DHT22;15616;40.148;-102.718;2023-04-03T05:21:13;19.90;51.70
28374;DHT22;15616;40.148;-102.718;2023-04-03T05:23:39;19.90;51.70
28374;DHT22;15616;40.148;-102.718;2023-04-03T05:26:05;19.90;51.70
28374;DHT22;15616;40.148;-102.718;2023-04-03T05:28:31;19.90;51.70
28374;DHT22;15616;40.148;-102.718;2023-04-03T05:30:57;19.90;51.70
28374;DHT22;15616;40.148;-102.718;2023-04-03T05:33:23;19.90;51.70
28374;DHT22;15616;40.148;-102.718;2023-04-03T05:35:49;19.90;51.70
28374;DHT22;15616;40.148;-102.718;2023-04-03T05:38:15;20.00;51.70
28374;DHT22;15616;40.148;-102.718;2023-04-03T05:40:41;20.00;51.60
28374;DHT22;15616;40.148;-102.718;2023-04-03T05:43:06;20.00;51.60
28374;DHT22;15616;40.148;-102.718;2023-04-03T05:45:32;20.00;51.60
28374;DHT22;15616;40.148;-102.718;2023-04-03T05:47:58;20.00;51.50
28374;DHT22;15616;40.148;-102.718;2023-04-03T05:50:23;20.00;51.50
28374;DHT22;15616;40.148;-102.718;2023-04-03T05:52:49;20.10;51.50
28374;DHT22;15616;40.148;-102.718;2023-04-03T05:55:16;20.10;51.40
28374;DHT22;15616;40.148;-102.718;2023-04-03T05:57:42;20.20;51.30
28374;DHT22;15616;40.148;-102.718;2023-04-03T06:00:10;20.20;51.20
28374;DHT22;15616;40.148;-102.718;2023-04-03T06:02:37;20.20;51.00
28374;DHT22;15616;40.148;-102.718;2023-04-03T06:05:03;20.30;50.90
28374;DHT22;15616;40.148;-102.718;2023-04-03T06:07:30;20.30;50.80
28374;DHT22;15616;40.148;-102.718;2023-04-03T06:09:56;20.30;50.60
28374;DHT22;15616;40.148;-102.718;2023-04-03T06:12:22;20.40;50.50
28374;DHT22;15616;40.148;-102.718;2023-04-03T06:14:48;20.40;50.40
28374;DHT22;15616;40.148;-102.718;2023-04-03T06:17:14;20.40;50.20
28374;DHT22;15616;40.148;-102.718;2023-04-03T06:19:40;20.40;50.10
28374;DHT22;15616;40.148;-102.718;2023-04-03T06:22:06;20.40;50.10
28374;DHT22;15616;40.148;-102.718;2023-04-03T06:24:32;20.40;50.20
28374;DHT22;15616;40.148;-102.718;2023-04-03T06:26:58;20.40;50.00
28374;DHT22;15616;40.148;-102.718;2023-04-03T06:29:24;20.40;50.10
28374;DHT22;15616;40.148;-102.718;2023-04-03T06:31:50;20.40;50.10
28374;DHT22;15616;40.148;-102.718;2023-04-03T06:34:16;20.40;50.10
28374;DHT22;15616;40.148;-102.718;2023-04-03T06:36:43;20.40;50.10
28374;DHT22;15616;40.148;-102.718;2023-04-03T06:39:13;20.40;50.10
28374;DHT22;15616;40.148;-102.718;2023-04-03T06:41:40;20.30;50.10
28374;DHT22;15616;40.148;-102.718;2023-04-03T06:44:06;20.30;50.20
28374;DHT22;15616;40.148;-102.718;2023-04-03T06:46:33;20.30;50.10
28374;DHT22;15616;40.148;-102.718;2023-04-03T06:48:59;20.40;50.10
28374;DHT22;15616;40.148;-102.718;2023-04-03T06:51:25;20.40;50.00
28374;DHT22;15616;40.148;-102.718;2023-04-03T06:53:53;20.40;50.00
28374;DHT22;15616;40.148;-102.718;2023-04-03T06:56:20;20.40;50.00
28374;DHT22;15616;40.148;-102.718;2023-04-03T06:58:45;20.40;50.00
28374;DHT22;15616;40.148;-102.718;2023-04-03T07:01:12;20.40;50.00
28374;DHT22;15616;40.148;-102.718;2023-04-03T07:03:38;20.40;50.00
28374;DHT22;15616;40.148;-102.718;2023-04-03T07:06:04;20.40;50.00
28374;DHT22;15616;40.148;-102.718;2023-04-03T07:08:31;20.40;50.00
28374;DHT22;15616;40.148;-102.718;2023-04-03T07:10:57;20.40;50.00
28374;DHT22;15616;40.148;-102.718;2023-04-03T07:13:22;20.40;50.00
28374;DHT22;15616;40.148;-102.718;2023-04-03T07:15:48;20.50;50.00
28374;DHT22;15616;40.148;-102.718;2023-04-03T07:18:14;20.40;50.00
28374;DHT22;15616;40.148;-102.718;2023-04-03T07:20:40;20.40;50.00
28374;DHT22;15616;40.148;-102.718;2023-04-03T07:23:06;20.40;50.00
28374;DHT22;15616;40.148;-102.718;2023-04-03T07:25:32;20.40;50.00
28374;DHT22;15616;40.148;-102.718;2023-04-03T07:27:59;20.40;50.00
28374;DHT22;15616;40.148;-102.718;2023-04-03T07:30:24;20.40;50.00
28374;DHT22;15616;40.148;-102.718;2023-04-03T07:32:51;20.50;50.00
28374;DHT22;15616;40.148;-102.718;2023-04-03T07:35:17;20.40;50.00
28374;DHT22;15616;40.148;-102.718;2023-04-03T07:37:43;20.40;49.90
28374;DHT22;15616;40.148;-102.718;2023-04-03T07:40:09;20.40;49.90
28374;DHT22;15616;40.148;-102.718;2023-04-03T07:42:35;20.50;49.90
28374;DHT22;15616;40.148;-102.718;2023-04-03T07:45:02;20.40;49.80
28374;DHT22;15616;40.148;-102.718;2023-04-03T07:47:29;20.40;49.80
28374;DHT22;15616;40.148;-102.718;2023-04-03T07:49:55;20.40;49.80
28374;DHT22;15616;40.148;-102.718;2023-04-03T07:52:22;20.40;49.80
28374;DHT22;15616;40.148;-102.718;2023-04-03T07:54:48;20.40;49.80
28374;DHT22;15616;40.148;-102.718;2023-04-03T07:57:14;20.40;49.80
28374;DHT22;15616;40.148;-102.718;2023-04-03T07:59:40;20.40;49.80
28374;DHT22;15616;40.148;-102.718;2023-04-03T08:02:11;20.40;49.80
28374;DHT22;15616;40.148;-102.718;2023-04-03T08:04:37;20.40;49.80
28374;DHT22;15616;40.148;-102.718;2023-04-03T08:07:02;20.40;49.70
28374;DHT22;15616;40.148;-102.718;2023-04-03T08:09:28;20.40;49.70
28374;DHT22;15616;40.148;-102.718;2023-04-03T08:11:54;20.50;49.80
28374;DHT22;15616;40.148;-102.718;2023-04-03T08:14:20;20.40;49.70
28374;DHT22;15616;40.148;-102.718;2023-04-03T08:16:46;20.40;49.60
28374;DHT22;15616;40.148;-102.718;2023-04-03T08:19:13;20.40;49.60
28374;DHT22;15616;40.148;-102.718;2023-04-03T08:21:41;20.40;49.60
28374;DHT22;15616;40.148;-102.718;2023-04-03T08:24:07;20.40;49.60
28374;DHT22;15616;40.148;-102.718;2023-04-03T08:26:33;20.40;49.60
28374;DHT22;15616;40.148;-102.718;2023-04-03T08:28:59;20.40;49.70
28374;DHT22;15616;40.148;-102.718;2023-04-03T08:31:25;20.40;49.60
28374;DHT22;15616;40.148;-102.718;2023-04-03T08:33:51;20.40;49.60
28374;DHT22;15616;40.148;-102.718;2023-04-03T08:36:19;20.40;49.60
28374;DHT22;15616;40.148;-102.718;2023-04-03T08:38:45;20.40;49.60
28374;DHT22;15616;40.148;-102.718;2023-04-03T08:41:15;20.40;50.10
28374;DHT22;15616;40.148;-102.718;2023-04-03T08:43:51;20.40;49.40
28374;DHT22;15616;40.148;-102.718;2023-04-03T08:46:19;20.40;49.40
28374;DHT22;15616;40.148;-102.718;2023-04-03T08:48:48;20.40;49.30
28374;DHT22;15616;40.148;-102.718;2023-04-03T08:51:15;20.40;49.40
28374;DHT22;15616;40.148;-102.718;2023-04-03T08:53:43;20.40;49.30
28374;DHT22;15616;40.148;-102.718;2023-04-03T08:56:10;20.40;49.30
28374;DHT22;15616;40.148;-102.718;2023-04-03T09:01:15;20.40;49.20
28374;DHT22;15616;40.148;-102.718;2023-04-03T09:03:42;20.50;49.30
28374;DHT22;15616;40.148;-102.718;2023-04-03T09:06:13;20.50;49.30
28374;DHT22;15616;40.148;-102.718;2023-04-03T09:08:43;20.50;49.30
28374;DHT22;15616;40.148;-102.718;2023-04-03T09:13:48;20.50;49.20
28374;DHT22;15616;40.148;-102.718;2023-04-03T09:18:48;20.50;49.20
28374;DHT22;15616;40.148;-102.718;2023-04-03T09:21:24;20.50;49.20
28374;DHT22;15616;40.148;-102.718;2023-04-03T09:23:54;20.50;49.10
28374;DHT22;15616;40.148;-102.718;2023-04-03T09:28:46;20.50;49.00
28374;DHT22;15616;40.148;-102.718;2023-04-03T09:33:43;20.50;49.00
28374;DHT22;15616;40.148;-102.718;2023-04-03T09:36:10;20.50;49.00
28374;DHT22;15616;40.148;-102.718;2023-04-03T09:38:36;20.50;48.90
28374;DHT22;15616;40.148;-102.718;2023-04-03T09:41:06;20.50;48.90
28374;DHT22;15616;40.148;-102.718;2023-04-03T09:43:33;20.50;48.80
28374;DHT22;15616;40.148;-102.718;2023-04-03T09:46:16;20.50;48.80
28374;DHT22;15616;40.148;-102.718;2023-04-03T09:49:02;20.50;48.70
28374;DHT22;15616;40.148;-102.718;2023-04-03T09:51:28;20.60;48.70
28374;DHT22;15616;40.148;-102.718;2023-04-03T09:53:55;20.50;49.30
28374;DHT22;15616;40.148;-102.718;2023-04-03T09:56:22;20.50;48.50
28374;DHT22;15616;40.148;-102.718;2023-04-03T09:58:50;20.50;48.50
28374;DHT22;15616;40.148;-102.718;2023-04-03T10:01:29;20.50;48.50
28374;DHT22;15616;40.148;-102.718;2023-04-03T10:04:09;20.50;48.60
28374;DHT22;15616;40.148;-102.718;2023-04-03T10:06:39;20.60;48.60
28374;DHT22;15616;40.148;-102.718;2023-04-03T10:09:22;20.60;48.60
28374;DHT22;15616;40.148;-102.718;2023-04-03T10:14:20;20.60;48.50
28374;DHT22;15616;40.148;-102.718;2023-04-03T10:22:16;20.60;48.30
28374;DHT22;15616;40.148;-102.718;2023-04-03T10:24:52;20.60;48.20
28374;DHT22;15616;40.148;-102.718;2023-04-03T10:37:47;20.60;48.20
28374;DHT22;15616;40.148;-102.718;2023-04-03T10:40:24;20.60;48.10
28374;DHT22;15616;40.148;-102.718;2023-04-03T10:43:04;20.60;48.10
28374;DHT22;15616;40.148;-102.718;2023-04-03T10:45:53;20.60;48.20
28374;DHT22;15616;40.148;-102.718;2023-04-03T10:48:37;20.60;48.20
28374;DHT22;15616;40.148;-102.718;2023-04-03T10:58:49;20.70;48.10
28374;DHT22;15616;40.148;-102.718;2023-04-03T11:01:21;20.70;48.00
28374;DHT22;15616;40.148;-102.718;2023-04-03T11:03:53;20.70;48.00
28374;DHT22;15616;40.148;-102.718;2023-04-03T11:06:19;20.70;47.90
28374;DHT22;15616;40.148;-102.718;2023-04-03T11:11:26;20.70;47.80
28374;DHT22;15616;40.148;-102.718;2023-04-03T11:16:26;20.70;47.50
28374;DHT22;15616;40.148;-102.718;2023-04-03T11:18:57;20.60;47.50
28374;DHT22;15616;40.148;-102.718;2023-04-03T11:21:29;20.60;47.50
28374;DHT22;15616;40.148;-102.718;2023-04-03T11:23:57;20.60;47.50
28374;DHT22;15616;40.148;-102.718;2023-04-03T11:26:26;20.70;47.50
28374;DHT22;15616;40.148;-102.718;2023-04-03T11:28:56;20.70;47.50
28374;DHT22;15616;40.148;-102.718;2023-04-03T11:31:29;20.60;47.50
28374;DHT22;15616;40.148;-102.718;2023-04-03T11:34:03;20.70;47.50
28374;DHT22;15616;40.148;-102.718;2023-04-03T11:36:32;20.70;47.50
28374;DHT22;15616;40.148;-102.718;2023-04-03T11:39:00;20.70;47.40
28374;DHT22;15616;40.148;-102.718;2023-04-03T11:41:30;20.70;47.30
28374;DHT22;15616;40.148;-102.718;2023-04-03T11:44:13;20.70;47.30
28374;DHT22;15616;40.148;-102.718;2023-04-03T11:46:52;20.70;47.40
28374;DHT22;15616;40.148;-102.718;2023-04-03T11:52:02;20.60;47.30
28374;DHT22;15616;40.148;-102.718;2023-04-03T11:54:35;20.60;47.30
28374;DHT22;15616;40.148;-102.718;2023-04-03T11:59:46;20.60;47.30
28374;DHT22;15616;40.148;-102.718;2023-04-03T12:13:30;20.60;47.30
28374;DHT22;15616;40.148;-102.718;2023-04-03T12:15:56;20.60;47.30
28374;DHT22;15616;40.148;-102.718;2023-04-03T12:21:12;20.60;47.40
28374;DHT22;15616;40.148;-102.718;2023-04-03T12:24:40;20.60;47.30
28374;DHT22;15616;40.148;-102.718;2023-04-03T12:29:27;20.60;47.30
28374;DHT22;15616;40.148;-102.718;2023-04-03T12:34:29;20.60;47.40
28374;DHT22;15616;40.148;-102.718;2023-04-03T12:37:03;20.60;47.40
28374;DHT22;15616;40.148;-102.718;2023-04-03T12:39:50;20.60;47.50
28374;DHT22;15616;40.148;-102.718;2023-04-03T12:42:29;20.60;47.40
28374;DHT22;15616;40.148;-102.718;2023-04-03T12:47:28;20.60;47.20
28374;DHT22;15616;40.148;-102.718;2023-04-03T12:49:54;20.60;47.20
28374;DHT22;15616;40.148;-102.718;2023-04-03T12:52:40;20.60;47.20
28374;DHT22;15616;40.148;-102.718;2023-04-03T12:55:08;20.60;47.20
28374;DHT22;15616;40.148;-102.718;2023-04-03T12:57:42;20.60;47.20
28374;DHT22;15616;40.148;-102.718;2023-04-03T13:02:52;20.60;47.10
28374;DHT22;15616;40.148;-102.718;2023-04-03T13:05:19;20.60;47.10
28374;DHT22;15616;40.148;-102.718;2023-04-03T13:07:48;20.60;47.10
28374;DHT22;15616;40.148;-102.718;2023-04-03T13:10:23;20.60;47.10
28374;DHT22;15616;40.148;-102.718;2023-04-03T13:12:54;20.60;47.10
28374;DHT22;15616;40.148;-102.718;2023-04-03T13:17:48;20.70;47.20
28374;DHT22;15616;40.148;-102.718;2023-04-03T13:20:25;20.70;47.20
28374;DHT22;15616;40.148;-102.718;2023-04-03T13:23:04;20.70;47.20
28374;DHT22;15616;40.148;-102.718;2023-04-03T13:25:31;20.70;47.10
28374;DHT22;15616;40.148;-102.718;2023-04-03T13:27:59;20.70;47.20
28374;DHT22;15616;40.148;-102.718;2023-04-03T13:30:27;20.70;47.10
28374;DHT22;15616;40.148;-102.718;2023-04-03T13:32:54;20.70;47.10
28374;DHT22;15616;40.148;-102.718;2023-04-03T13:35:27;20.70;47.00
28374;DHT22;15616;40.148;-102.718;2023-04-03T13:37:54;20.70;47.00
28374;DHT22;15616;40.148;-102.718;2023-04-03T13:40:20;20.70;47.00
28374;DHT22;15616;40.148;-102.718;2023-04-03T13:42:46;20.70;46.80
28374;DHT22;15616;40.148;-102.718;2023-04-03T13:45:24;20.70;46.80
28374;DHT22;15616;40.148;-102.718;2023-04-03T13:47:55;20.70;46.90
28374;DHT22;15616;40.148;-102.718;2023-04-03T13:50:32;20.70;46.80
28374;DHT22;15616;40.148;-102.718;2023-04-03T13:53:01;20.70;46.70
28374;DHT22;15616;40.148;-102.718;2023-04-03T13:55:30;20.70;46.70
28374;DHT22;15616;40.148;-102.718;2023-04-03T13:58:00;20.80;46.70
28374;DHT22;15616;40.148;-102.718;2023-04-03T14:02:53;20.80;46.60
28374;DHT22;15616;40.148;-102.718;2023-04-03T14:05:19;20.80;46.50
28374;DHT22;15616;40.148;-102.718;2023-04-03T14:07:46;20.80;46.50
28374;DHT22;15616;40.148;-102.718;2023-04-03T14:10:12;20.80;46.60
28374;DHT22;15616;40.148;-102.718;2023-04-03T14:12:38;20.80;46.50
28374;DHT22;15616;40.148;-102.718;2023-04-03T14:15:15;20.80;46.50
28374;DHT22;15616;40.148;-102.718;2023-04-03T14:17:41;20.70;46.40
28374;DHT22;15616;40.148;-102.718;2023-04-03T14:20:10;20.80;46.60
28374;DHT22;15616;40.148;-102.718;2023-04-03T14:22:39;20.80;46.50
28374;DHT22;15616;40.148;-102.718;2023-04-03T14:25:05;20.80;46.40
28374;DHT22;15616;40.148;-102.718;2023-04-03T14:27:36;20.90;46.40
28374;DHT22;15616;40.148;-102.718;2023-04-03T14:30:03;20.90;46.40
28374;DHT22;15616;40.148;-102.718;2023-04-03T14:32:29;21.00;46.30
28374;DHT22;15616;40.148;-102.718;2023-04-03T14:34:56;21.30;46.30
28374;DHT22;15616;40.148;-102.718;2023-04-03T14:37:25;21.60;46.10
28374;DHT22;15616;40.148;-102.718;2023-04-03T14:39:53;21.80;45.70
28374;DHT22;15616;40.148;-102.718;2023-04-03T14:42:21;22.00;45.40
28374;DHT22;15616;40.148;-102.718;2023-04-03T14:44:47;22.00;45.20
28374;DHT22;15616;40.148;-102.718;2023-04-03T14:47:14;21.90;45.00
28374;DHT22;15616;40.148;-102.718;2023-04-03T14:49:41;21.80;45.10
28374;DHT22;15616;40.148;-102.718;2023-04-03T14:52:09;21.70;45.10
28374;DHT22;15616;40.148;-102.718;2023-04-03T14:54:41;21.60;45.30
28374;DHT22;15616;40.148;-102.718;2023-04-03T14:57:08;21.50;45.40
28374;DHT22;15616;40.148;-102.718;2023-04-03T14:59:34;21.50;45.50
28374;DHT22;15616;40.148;-102.718;2023-04-03T15:02:00;21.40;45.50
28374;DHT22;15616;40.148;-102.718;2023-04-03T15:04:26;21.30;45.50
28374;DHT22;15616;40.148;-102.718;2023-04-03T15:06:53;21.30;45.60
28374;DHT22;15616;40.148;-102.718;2023-04-03T15:09:23;21.20;45.50
28374;DHT22;15616;40.148;-102.718;2023-04-03T15:11:49;21.30;45.70
28374;DHT22;15616;40.148;-102.718;2023-04-03T15:14:16;21.20;45.70
28374;DHT22;15616;40.148;-102.718;2023-04-03T15:16:42;21.20;45.80
28374;DHT22;15616;40.148;-102.718;2023-04-03T15:19:07;21.20;45.90
28374;DHT22;15616;40.148;-102.718;2023-04-03T15:21:33;21.20;45.80
28374;DHT22;15616;40.148;-102.718;2023-04-03T15:23:59;21.10;45.80
28374;DHT22;15616;40.148;-102.718;2023-04-03T15:26:25;21.10;45.80
28374;DHT22;15616;40.148;-102.718;2023-04-03T15:28:51;21.10;45.80
28374;DHT22;15616;40.148;-102.718;2023-04-03T15:31:16;21.10;45.80
28374;DHT22;15616;40.148;-102.718;2023-04-03T15:33:42;21.10;45.90
28374;DHT22;15616;40.148;-102.718;2023-04-03T15:36:08;21.10;45.90
28374;DHT22;15616;40.148;-102.718;2023-04-03T15:38:34;21.10;45.90
28374;DHT22;15616;40.148;-102.718;2023-04-03T15:41:00;21.10;46.00
28374;DHT22;15616;40.148;-102.718;2023-04-03T15:43:26;21.00;45.90
28374;DHT22;15616;40.148;-102.718;2023-04-03T15:45:52;21.00;45.90
28374;DHT22;15616;40.148;-102.718;2023-04-03T15:48:21;21.00;45.90
28374;DHT22;15616;40.148;-102.718;2023-04-03T15:50:47;21.00;46.00
28374;DHT22;15616;40.148;-102.718;2023-04-03T15:53:12;21.00;46.00
28374;DHT22;15616;40.148;-102.718;2023-04-03T15:55:38;21.00;46.00
28374;DHT22;15616;40.148;-102.718;2023-04-03T15:58:04;21.00;45.90
28374;DHT22;15616;40.148;-102.718;2023-04-03T16:00:30;21.00;46.00
28374;DHT22;15616;40.148;-102.718;2023-04-03T16:03:01;21.00;46.00
28374;DHT22;15616;40.148;-102.718;2023-04-03T16:05:29;20.90;45.80
28374;DHT22;15616;40.148;-102.718;2023-04-03T16:07:56;20.90;45.90
28374;DHT22;15616;40.148;-102.718;2023-04-03T16:10:22;20.90;45.80
28374;DHT22;15616;40.148;-102.718;2023-04-03T16:12:48;20.90;45.90